sensor_id;sensor_type;location;lat;lon;timestamp;P1;durP1;ratioP1;P2;durP2;ratioP2
69150;SDS011;56257;52.196;13.870;2022-10-18T00:02:03;17.70;;;11.68;;
69150;SDS011;56257;52.196;13.870;2022-10-18T00:04:30;18.33;;;11.90;;
69150;SDS011;56257;52.196;13.870;2022-10-18T00:06:57;17.75;;;11.20;;
69150;SDS011;56257;52.196;13.870;2022-10-18T00:09:24;19.08;;;12.00;;
69150;SDS011;56257;52.196;13.870;2022-10-18T00:11:53;19.45;;;12.13;;
69150;SDS011;56257;52.196;13.870;2022-10-18T00:14:19;21.02;;;12.52;;
69150;SDS011;56257;52.196;13.870;2022-10-18T00:16:46;18.77;;;12.27;;
69150;SDS011;56257;52.196;13.870;2022-10-18T00:19:13;15.57;;;10.88;;
69150;SDS011;56257;52.196;13.870;2022-10-18T00:21:40;20.83;;;12.18;;
69150;SDS011;56257;52.196;13.870;2022-10-18T00:24:06;18.05;;;11.27;;
69150;SDS011;56257;52.196;13.870;2022-10-18T00:26:33;18.38;;;12.10;;
69150;SDS011;56257;52.196;13.870;2022-10-18T00:29:01;17.90;;;11.57;;
69150;SDS011;56257;52.196;13.870;2022-10-18T00:31:30;20.55;;;12.02;;
69150;SDS011;56257;52.196;13.870;2022-10-18T00:34:02;18.65;;;11.55;;
69150;SDS011;56257;52.196;13.870;2022-10-18T00:36:31;18.83;;;12.23;;
69150;SDS011;56257;52.196;13.870;2022-10-18T00:39:00;17.05;;;11.30;;
69150;SDS011;56257;52.196;13.870;2022-10-18T00:41:28;18.57;;;11.27;;
69150;SDS011;56257;52.196;13.870;2022-10-18T00:43:58;19.67;;;12.63;;
69150;SDS011;56257;52.196;13.870;2022-10-18T00:46:30;18.02;;;12.23;;
69150;SDS011;56257;52.196;13.870;2022-10-18T00:48:59;19.55;;;11.50;;
69150;SDS011;56257;52.196;13.870;2022-10-18T00:51:30;16.50;;;10.82;;
69150;SDS011;56257;52.196;13.870;2022-10-18T00:53:59;17.47;;;11.33;;
69150;SDS011;56257;52.196;13.870;2022-10-18T00:56:26;17.23;;;11.15;;
69150;SDS011;56257;52.196;13.870;2022-10-18T00:58:53;17.00;;;10.93;;
69150;SDS011;56257;52.196;13.870;2022-10-18T01:01:20;18.63;;;11.50;;
69150;SDS011;56257;52.196;13.870;2022-10-18T01:03:52;18.20;;;10.82;;
69150;SDS011;56257;52.196;13.870;2022-10-18T01:06:19;18.33;;;11.27;;
69150;SDS011;56257;52.196;13.870;2022-10-18T01:11:50;17.33;;;11.45;;
69150;SDS011;56257;52.196;13.870;2022-10-18T01:15:07;17.60;;;11.32;;
69150;SDS011;56257;52.196;13.870;2022-10-18T01:17:52;16.67;;;10.50;;
69150;SDS011;56257;52.196;13.870;2022-10-18T01:28:58;16.77;;;11.65;;
69150;SDS011;56257;52.196;13.870;2022-10-18T01:31:32;18.77;;;11.25;;
69150;SDS011;56257;52.196;13.870;2022-10-18T01:34:02;17.23;;;10.60;;
69150;SDS011;56257;52.196;13.870;2022-10-18T01:36:31;16.88;;;10.63;;
69150;SDS011;56257;52.196;13.870;2022-10-18T01:38:59;17.65;;;11.32;;
69150;SDS011;56257;52.196;13.870;2022-10-18T01:41:30;16.65;;;10.82;;
69150;SDS011;56257;52.196;13.870;2022-10-18T01:43:59;18.08;;;11.00;;
69150;SDS011;56257;52.196;13.870;2022-10-18T01:46:27;17.33;;;11.20;;
69150;SDS011;56257;52.196;13.870;2022-10-18T01:48:54;17.27;;;10.00;;
69150;SDS011;56257;52.196;13.870;2022-10-18T01:51:23;16.25;;;10.60;;
69150;SDS011;56257;52.196;13.870;2022-10-18T01:53:54;17.65;;;10.50;;
69150;SDS011;56257;52.196;13.870;2022-10-18T01:59:14;16.27;;;10.70;;
69150;SDS011;56257;52.196;13.870;2022-10-18T02:05:01;18.83;;;11.25;;
69150;SDS011;56257;52.196;13.870;2022-10-18T02:07:33;15.70;;;10.52;;
69150;SDS011;56257;52.196;13.870;2022-10-18T02:10:14;17.58;;;11.00;;
69150;SDS011;56257;52.196;13.870;2022-10-18T02:12:53;18.53;;;10.57;;
69150;SDS011;56257;52.196;13.870;2022-10-18T02:15:43;16.38;;;11.00;;
69150;SDS011;56257;52.196;13.870;2022-10-18T02:18:10;16.20;;;11.25;;
69150;SDS011;56257;52.196;13.870;2022-10-18T02:20:40;20.50;;;10.88;;
69150;SDS011;56257;52.196;13.870;2022-10-18T02:23:07;16.38;;;10.50;;
69150;SDS011;56257;52.196;13.870;2022-10-18T02:25:35;19.33;;;10.43;;
69150;SDS011;56257;52.196;13.870;2022-10-18T02:28:02;17.70;;;11.18;;
69150;SDS011;56257;52.196;13.870;2022-10-18T02:30:38;17.30;;;11.02;;
69150;SDS011;56257;52.196;13.870;2022-10-18T02:33:31;18.40;;;11.02;;
69150;SDS011;56257;52.196;13.870;2022-10-18T02:36:02;16.73;;;10.68;;
69150;SDS011;56257;52.196;13.870;2022-10-18T02:38:38;16.63;;;10.57;;
69150;SDS011;56257;52.196;13.870;2022-10-18T02:41:05;16.27;;;10.15;;
69150;SDS011;56257;52.196;13.870;2022-10-18T02:43:32;19.15;;;11.23;;
69150;SDS011;56257;52.196;13.870;2022-10-18T02:46:00;17.77;;;10.77;;
69150;SDS011;56257;52.196;13.870;2022-10-18T02:48:27;18.67;;;10.05;;
69150;SDS011;56257;52.196;13.870;2022-10-18T02:50:54;16.27;;;10.47;;
69150;SDS011;56257;52.196;13.870;2022-10-18T02:53:20;16.02;;;11.07;;
69150;SDS011;56257;52.196;13.870;2022-10-18T02:55:47;16.55;;;10.57;;
69150;SDS011;56257;52.196;13.870;2022-10-18T02:58:13;16.30;;;10.70;;
69150;SDS011;56257;52.196;13.870;2022-10-18T03:00:41;18.10;;;11.40;;
69150;SDS011;56257;52.196;13.870;2022-10-18T03:03:07;17.13;;;9.87;;
69150;SDS011;56257;52.196;13.870;2022-10-18T03:05:34;18.52;;;10.70;;
69150;SDS011;56257;52.196;13.870;2022-10-18T03:08:00;14.73;;;10.20;;
69150;SDS011;56257;52.196;13.870;2022-10-18T03:10:27;18.33;;;10.60;;
69150;SDS011;56257;52.196;13.870;2022-10-18T03:12:54;16.25;;;10.65;;
69150;SDS011;56257;52.196;13.870;2022-10-18T03:15:20;16.50;;;10.90;;
69150;SDS011;56257;52.196;13.870;2022-10-18T03:17:47;18.48;;;11.60;;
69150;SDS011;56257;52.196;13.870;2022-10-18T03:20:13;16.80;;;10.55;;
69150;SDS011;56257;52.196;13.870;2022-10-18T03:22:40;15.40;;;10.18;;
69150;SDS011;56257;52.196;13.870;2022-10-18T03:25:07;15.77;;;10.55;;
69150;SDS011;56257;52.196;13.870;2022-10-18T03:27:33;16.37;;;10.50;;
69150;SDS011;56257;52.196;13.870;2022-10-18T03:30:00;16.10;;;10.02;;
69150;SDS011;56257;52.196;13.870;2022-10-18T03:32:27;16.67;;;10.02;;
69150;SDS011;56257;52.196;13.870;2022-10-18T03:34:53;16.52;;;10.43;;
69150;SDS011;56257;52.196;13.870;2022-10-18T03:37:20;15.98;;;9.73;;
69150;SDS011;56257;52.196;13.870;2022-10-18T03:39:46;15.03;;;9.67;;
69150;SDS011;56257;52.196;13.870;2022-10-18T03:42:13;14.93;;;9.90;;
69150;SDS011;56257;52.196;13.870;2022-10-18T03:44:39;15.45;;;9.73;;
69150;SDS011;56257;52.196;13.870;2022-10-18T03:47:06;16.52;;;10.13;;
69150;SDS011;56257;52.196;13.870;2022-10-18T03:49:33;16.73;;;10.25;;
69150;SDS011;56257;52.196;13.870;2022-10-18T03:51:59;16.47;;;9.80;;
69150;SDS011;56257;52.196;13.870;2022-10-18T03:54:26;16.67;;;10.10;;
69150;SDS011;56257;52.196;13.870;2022-10-18T03:56:52;16.23;;;9.75;;
69150;SDS011;56257;52.196;13.870;2022-10-18T03:59:19;15.05;;;9.73;;
69150;SDS011;56257;52.196;13.870;2022-10-18T04:01:46;15.52;;;9.50;;
69150;SDS011;56257;52.196;13.870;2022-10-18T04:04:12;13.67;;;9.17;;
69150;SDS011;56257;52.196;13.870;2022-10-18T04:06:39;13.27;;;9.15;;
69150;SDS011;56257;52.196;13.870;2022-10-18T04:09:06;13.82;;;9.27;;
69150;SDS011;56257;52.196;13.870;2022-10-18T04:11:35;13.65;;;9.32;;
69150;SDS011;56257;52.196;13.870;2022-10-18T04:14:02;13.95;;;9.15;;
69150;SDS011;56257;52.196;13.870;2022-10-18T04:16:28;18.00;;;9.97;;
69150;SDS011;56257;52.196;13.870;2022-10-18T04:18:55;15.18;;;9.38;;
69150;SDS011;56257;52.196;13.870;2022-10-18T04:21:21;13.48;;;8.88;;
69150;SDS011;56257;52.196;13.870;2022-10-18T04:23:48;13.45;;;9.05;;
69150;SDS011;56257;52.196;13.870;2022-10-18T04:26:15;15.05;;;8.52;;
69150;SDS011;56257;52.196;13.870;2022-10-18T04:28:42;13.23;;;8.63;;
69150;SDS011;56257;52.196;13.870;2022-10-18T04:31:09;13.63;;;8.80;;
69150;SDS011;56257;52.196;13.870;2022-10-18T04:33:36;13.73;;;8.88;;
69150;SDS011;56257;52.196;13.870;2022-10-18T04:36:03;14.18;;;9.25;;
69150;SDS011;56257;52.196;13.870;2022-10-18T04:38:30;13.00;;;8.32;;
69150;SDS011;56257;52.196;13.870;2022-10-18T04:40:56;14.40;;;8.73;;
69150;SDS011;56257;52.196;13.870;2022-10-18T04:43:23;17.67;;;9.15;;
69150;SDS011;56257;52.196;13.870;2022-10-18T04:45:50;16.20;;;8.75;;
69150;SDS011;56257;52.196;13.870;2022-10-18T04:48:16;13.02;;;8.15;;
69150;SDS011;56257;52.196;13.870;2022-10-18T04:50:45;13.20;;;9.05;;
69150;SDS011;56257;52.196;13.870;2022-10-18T04:53:13;12.93;;;8.00;;
69150;SDS011;56257;52.196;13.870;2022-10-18T04:55:44;12.57;;;8.25;;
69150;SDS011;56257;52.196;13.870;2022-10-18T04:58:14;13.05;;;8.25;;
69150;SDS011;56257;52.196;13.870;2022-10-18T05:00:41;12.73;;;7.90;;
69150;SDS011;56257;52.196;13.870;2022-10-18T05:03:08;12.32;;;7.75;;
69150;SDS011;56257;52.196;13.870;2022-10-18T05:05:37;15.57;;;8.80;;
69150;SDS011;56257;52.196;13.870;2022-10-18T05:08:23;14.90;;;8.35;;
69150;SDS011;56257;52.196;13.870;2022-10-18T05:10:50;14.07;;;8.38;;
69150;SDS011;56257;52.196;13.870;2022-10-18T05:13:17;12.43;;;8.15;;
69150;SDS011;56257;52.196;13.870;2022-10-18T05:15:45;14.05;;;7.95;;
69150;SDS011;56257;52.196;13.870;2022-10-18T05:18:12;12.83;;;8.00;;
69150;SDS011;56257;52.196;13.870;2022-10-18T05:20:38;13.10;;;8.15;;
69150;SDS011;56257;52.196;13.870;2022-10-18T05:23:05;10.98;;;7.40;;
69150;SDS011;56257;52.196;13.870;2022-10-18T05:25:39;13.93;;;8.02;;
69150;SDS011;56257;52.196;13.870;2022-10-18T05:28:08;12.75;;;7.47;;
69150;SDS011;56257;52.196;13.870;2022-10-18T05:30:59;12.80;;;8.00;;
69150;SDS011;56257;52.196;13.870;2022-10-18T05:33:30;12.52;;;7.80;;
69150;SDS011;56257;52.196;13.870;2022-10-18T05:35:57;11.25;;;7.70;;
69150;SDS011;56257;52.196;13.870;2022-10-18T05:38:24;12.48;;;7.68;;
69150;SDS011;56257;52.196;13.870;2022-10-18T05:40:51;11.75;;;7.15;;
69150;SDS011;56257;52.196;13.870;2022-10-18T05:43:17;11.27;;;7.37;;
69150;SDS011;56257;52.196;13.870;2022-10-18T05:45:47;11.70;;;7.60;;
69150;SDS011;56257;52.196;13.870;2022-10-18T05:48:15;11.93;;;7.55;;
69150;SDS011;56257;52.196;13.870;2022-10-18T05:50:42;12.90;;;7.63;;
69150;SDS011;56257;52.196;13.870;2022-10-18T05:53:08;13.32;;;7.80;;
69150;SDS011;56257;52.196;13.870;2022-10-18T05:55:43;11.23;;;7.30;;
69150;SDS011;56257;52.196;13.870;2022-10-18T05:58:10;11.30;;;7.03;;
69150;SDS011;56257;52.196;13.870;2022-10-18T06:00:36;12.32;;;7.88;;
69150;SDS011;56257;52.196;13.870;2022-10-18T06:03:03;11.38;;;7.65;;
69150;SDS011;56257;52.196;13.870;2022-10-18T06:05:30;11.05;;;7.30;;
69150;SDS011;56257;52.196;13.870;2022-10-18T06:07:57;11.87;;;6.87;;
69150;SDS011;56257;52.196;13.870;2022-10-18T06:10:24;10.32;;;7.45;;
69150;SDS011;56257;52.196;13.870;2022-10-18T06:12:50;12.00;;;7.28;;
69150;SDS011;56257;52.196;13.870;2022-10-18T06:15:17;11.23;;;7.63;;
69150;SDS011;56257;52.196;13.870;2022-10-18T06:17:44;10.43;;;7.22;;
69150;SDS011;56257;52.196;13.870;2022-10-18T06:20:10;11.90;;;7.00;;
69150;SDS011;56257;52.196;13.870;2022-10-18T06:22:37;11.45;;;7.25;;
69150;SDS011;56257;52.196;13.870;2022-10-18T06:25:04;12.30;;;7.75;;
69150;SDS011;56257;52.196;13.870;2022-10-18T06:27:32;12.43;;;7.38;;
69150;SDS011;56257;52.196;13.870;2022-10-18T06:30:00;11.80;;;7.90;;
69150;SDS011;56257;52.196;13.870;2022-10-18T06:32:26;11.60;;;7.30;;
69150;SDS011;56257;52.196;13.870;2022-10-18T06:34:53;17.08;;;8.98;;
69150;SDS011;56257;52.196;13.870;2022-10-18T06:37:19;12.95;;;7.88;;
69150;SDS011;56257;52.196;13.870;2022-10-18T06:39:46;11.32;;;7.53;;
69150;SDS011;56257;52.196;13.870;2022-10-18T06:42:13;12.38;;;7.82;;
69150;SDS011;56257;52.196;13.870;2022-10-18T06:44:42;12.17;;;7.30;;
69150;SDS011;56257;52.196;13.870;2022-10-18T06:47:08;11.77;;;7.35;;
69150;SDS011;56257;52.196;13.870;2022-10-18T06:49:35;11.43;;;7.30;;
69150;SDS011;56257;52.196;13.870;2022-10-18T06:52:01;11.48;;;7.40;;
69150;SDS011;56257;52.196;13.870;2022-10-18T06:54:28;13.38;;;7.78;;
69150;SDS011;56257;52.196;13.870;2022-10-18T06:56:55;12.70;;;7.50;;
69150;SDS011;56257;52.196;13.870;2022-10-18T06:59:23;13.18;;;7.30;;
69150;SDS011;56257;52.196;13.870;2022-10-18T07:01:54;13.60;;;8.20;;
69150;SDS011;56257;52.196;13.870;2022-10-18T07:04:20;11.80;;;7.53;;
69150;SDS011;56257;52.196;13.870;2022-10-18T07:06:47;11.32;;;7.60;;
69150;SDS011;56257;52.196;13.870;2022-10-18T07:09:13;11.23;;;7.37;;
69150;SDS011;56257;52.196;13.870;2022-10-18T07:11:40;12.27;;;7.78;;
69150;SDS011;56257;52.196;13.870;2022-10-18T07:14:07;12.43;;;8.10;;
69150;SDS011;56257;52.196;13.870;2022-10-18T07:16:37;12.30;;;7.68;;
69150;SDS011;56257;52.196;13.870;2022-10-18T07:19:04;12.45;;;7.88;;
69150;SDS011;56257;52.196;13.870;2022-10-18T07:21:30;12.37;;;7.90;;
69150;SDS011;56257;52.196;13.870;2022-10-18T07:23:57;12.38;;;7.85;;
69150;SDS011;56257;52.196;13.870;2022-10-18T07:26:25;12.55;;;8.02;;
69150;SDS011;56257;52.196;13.870;2022-10-18T07:29:13;10.55;;;6.97;;
69150;SDS011;56257;52.196;13.870;2022-10-18T07:31:40;12.27;;;7.63;;
69150;SDS011;56257;52.196;13.870;2022-10-18T07:34:08;12.97;;;7.67;;
69150;SDS011;56257;52.196;13.870;2022-10-18T07:36:36;14.68;;;8.15;;
69150;SDS011;56257;52.196;13.870;2022-10-18T07:39:03;13.10;;;7.60;;
69150;SDS011;56257;52.196;13.870;2022-10-18T07:41:30;12.65;;;7.82;;
69150;SDS011;56257;52.196;13.870;2022-10-18T07:43:59;12.68;;;7.30;;
69150;SDS011;56257;52.196;13.870;2022-10-18T07:46:27;12.57;;;7.47;;
69150;SDS011;56257;52.196;13.870;2022-10-18T07:48:53;14.27;;;7.68;;
69150;SDS011;56257;52.196;13.870;2022-10-18T07:51:20;11.68;;;7.38;;
69150;SDS011;56257;52.196;13.870;2022-10-18T07:53:47;13.02;;;7.43;;
69150;SDS011;56257;52.196;13.870;2022-10-18T07:56:15;11.68;;;7.32;;
69150;SDS011;56257;52.196;13.870;2022-10-18T07:58:43;11.30;;;7.10;;
69150;SDS011;56257;52.196;13.870;2022-10-18T08:01:10;12.73;;;7.72;;
69150;SDS011;56257;52.196;13.870;2022-10-18T08:03:38;11.05;;;7.30;;
69150;SDS011;56257;52.196;13.870;2022-10-18T08:06:06;12.20;;;7.45;;
69150;SDS011;56257;52.196;13.870;2022-10-18T08:08:34;11.07;;;7.68;;
69150;SDS011;56257;52.196;13.870;2022-10-18T08:11:03;11.37;;;7.30;;
69150;SDS011;56257;52.196;13.870;2022-10-18T08:13:33;11.27;;;7.30;;
69150;SDS011;56257;52.196;13.870;2022-10-18T08:16:01;9.85;;;6.88;;
69150;SDS011;56257;52.196;13.870;2022-10-18T08:18:31;11.25;;;7.05;;
69150;SDS011;56257;52.196;13.870;2022-10-18T08:20:59;13.68;;;7.65;;
69150;SDS011;56257;52.196;13.870;2022-10-18T08:23:26;10.83;;;6.80;;
69150;SDS011;56257;52.196;13.870;2022-10-18T08:25:52;11.30;;;6.90;;
69150;SDS011;56257;52.196;13.870;2022-10-18T08:28:19;11.93;;;7.63;;
69150;SDS011;56257;52.196;13.870;2022-10-18T08:30:45;11.07;;;7.30;;
69150;SDS011;56257;52.196;13.870;2022-10-18T08:33:12;11.57;;;7.05;;
69150;SDS011;56257;52.196;13.870;2022-10-18T08:35:39;11.17;;;7.10;;
69150;SDS011;56257;52.196;13.870;2022-10-18T08:38:05;10.95;;;7.25;;
69150;SDS011;56257;52.196;13.870;2022-10-18T08:40:43;10.20;;;6.80;;
69150;SDS011;56257;52.196;13.870;2022-10-18T08:45:53;11.13;;;6.90;;
69150;SDS011;56257;52.196;13.870;2022-10-18T08:48:31;10.97;;;7.20;;
69150;SDS011;56257;52.196;13.870;2022-10-18T08:51:01;10.63;;;6.97;;
69150;SDS011;56257;52.196;13.870;2022-10-18T08:53:36;11.52;;;7.10;;
69150;SDS011;56257;52.196;13.870;2022-10-18T08:56:11;9.98;;;6.32;;
69150;SDS011;56257;52.196;13.870;2022-10-18T08:58:41;13.73;;;6.65;;
69150;SDS011;56257;52.196;13.870;2022-10-18T09:03:59;10.68;;;6.38;;
69150;SDS011;56257;52.196;13.870;2022-10-18T09:06:47;9.75;;;6.20;;
69150;SDS011;56257;52.196;13.870;2022-10-18T09:09:40;9.98;;;6.13;;
69150;SDS011;56257;52.196;13.870;2022-10-18T09:25:55;9.93;;;6.15;;
69150;SDS011;56257;52.196;13.870;2022-10-18T09:28:36;10.37;;;5.90;;
69150;SDS011;56257;52.196;13.870;2022-10-18T09:31:55;9.25;;;5.68;;
69150;SDS011;56257;52.196;13.870;2022-10-18T09:37:02;8.65;;;5.35;;
69150;SDS011;56257;52.196;13.870;2022-10-18T09:39:30;8.40;;;5.07;;
69150;SDS011;56257;52.196;13.870;2022-10-18T09:42:01;9.07;;;5.10;;
69150;SDS011;56257;52.196;13.870;2022-10-18T09:44:47;8.00;;;5.13;;
69150;SDS011;56257;52.196;13.870;2022-10-18T09:47:18;8.85;;;5.32;;
69150;SDS011;56257;52.196;13.870;2022-10-18T09:49:51;7.63;;;4.50;;
69150;SDS011;56257;52.196;13.870;2022-10-18T09:52:38;8.15;;;5.43;;
69150;SDS011;56257;52.196;13.870;2022-10-18T09:55:11;7.83;;;4.80;;
69150;SDS011;56257;52.196;13.870;2022-10-18T09:57:42;9.60;;;5.47;;
69150;SDS011;56257;52.196;13.870;2022-10-18T10:00:16;8.38;;;4.85;;
69150;SDS011;56257;52.196;13.870;2022-10-18T10:02:46;7.57;;;4.45;;
69150;SDS011;56257;52.196;13.870;2022-10-18T10:05:13;9.38;;;5.15;;
69150;SDS011;56257;52.196;13.870;2022-10-18T10:07:41;9.27;;;4.50;;
69150;SDS011;56257;52.196;13.870;2022-10-18T10:10:25;7.50;;;4.53;;
69150;SDS011;56257;52.196;13.870;2022-10-18T10:13:03;7.28;;;4.80;;
69150;SDS011;56257;52.196;13.870;2022-10-18T10:15:30;7.07;;;4.35;;
69150;SDS011;56257;52.196;13.870;2022-10-18T10:18:07;7.20;;;4.30;;
69150;SDS011;56257;52.196;13.870;2022-10-18T10:20:46;7.53;;;3.83;;
69150;SDS011;56257;52.196;13.870;2022-10-18T10:23:19;8.38;;;4.38;;
69150;SDS011;56257;52.196;13.870;2022-10-18T10:25:53;7.10;;;4.20;;
69150;SDS011;56257;52.196;13.870;2022-10-18T10:28:22;7.97;;;4.43;;
69150;SDS011;56257;52.196;13.870;2022-10-18T10:30:51;7.07;;;4.00;;
69150;SDS011;56257;52.196;13.870;2022-10-18T10:33:37;6.43;;;4.30;;
69150;SDS011;56257;52.196;13.870;2022-10-18T10:36:05;7.35;;;4.10;;
69150;SDS011;56257;52.196;13.870;2022-10-18T10:38:41;6.82;;;4.03;;
69150;SDS011;56257;52.196;13.870;2022-10-18T10:41:17;6.57;;;4.18;;
69150;SDS011;56257;52.196;13.870;2022-10-18T10:43:48;7.30;;;4.22;;
69150;SDS011;56257;52.196;13.870;2022-10-18T10:46:15;7.60;;;4.30;;
69150;SDS011;56257;52.196;13.870;2022-10-18T10:48:46;6.00;;;3.90;;
69150;SDS011;56257;52.196;13.870;2022-10-18T10:51:39;8.18;;;4.00;;
69150;SDS011;56257;52.196;13.870;2022-10-18T10:54:11;7.13;;;4.00;;
69150;SDS011;56257;52.196;13.870;2022-10-18T10:56:51;6.78;;;3.65;;
69150;SDS011;56257;52.196;13.870;2022-10-18T10:59:30;6.23;;;3.40;;
69150;SDS011;56257;52.196;13.870;2022-10-18T11:02:25;6.95;;;3.47;;
69150;SDS011;56257;52.196;13.870;2022-10-18T11:04:50;6.35;;;3.30;;
69150;SDS011;56257;52.196;13.870;2022-10-18T11:12:37;6.77;;;3.20;;
69150;SDS011;56257;52.196;13.870;2022-10-18T11:15:09;6.35;;;3.38;;
69150;SDS011;56257;52.196;13.870;2022-10-18T11:23:15;6.85;;;3.60;;
69150;SDS011;56257;52.196;13.870;2022-10-18T11:36:46;5.55;;;3.08;;
69150;SDS011;56257;52.196;13.870;2022-10-18T11:42:41;5.65;;;2.80;;
69150;SDS011;56257;52.196;13.870;2022-10-18T11:48:31;4.93;;;2.35;;
69150;SDS011;56257;52.196;13.870;2022-10-18T11:51:07;5.32;;;2.83;;
69150;SDS011;56257;52.196;13.870;2022-10-18T11:54:08;6.23;;;3.20;;
69150;SDS011;56257;52.196;13.870;2022-10-18T12:02:01;5.30;;;2.90;;
69150;SDS011;56257;52.196;13.870;2022-10-18T12:04:42;6.40;;;3.00;;
69150;SDS011;56257;52.196;13.870;2022-10-18T12:07:35;5.73;;;2.70;;
69150;SDS011;56257;52.196;13.870;2022-10-18T12:10:05;5.82;;;2.83;;
69150;SDS011;56257;52.196;13.870;2022-10-18T12:12:41;5.75;;;3.22;;
69150;SDS011;56257;52.196;13.870;2022-10-18T12:17:42;5.65;;;2.70;;
69150;SDS011;56257;52.196;13.870;2022-10-18T12:20:16;6.20;;;2.77;;
69150;SDS011;56257;52.196;13.870;2022-10-18T12:25:41;6.15;;;2.90;;
69150;SDS011;56257;52.196;13.870;2022-10-18T12:30:54;5.00;;;2.58;;
69150;SDS011;56257;52.196;13.870;2022-10-18T12:33:41;5.53;;;2.53;;
69150;SDS011;56257;52.196;13.870;2022-10-18T12:36:22;5.05;;;2.80;;
69150;SDS011;56257;52.196;13.870;2022-10-18T12:39:18;6.05;;;2.80;;
69150;SDS011;56257;52.196;13.870;2022-10-18T12:42:19;4.70;;;2.60;;
69150;SDS011;56257;52.196;13.870;2022-10-18T12:44:47;4.53;;;2.30;;
69150;SDS011;56257;52.196;13.870;2022-10-18T12:47:21;5.20;;;2.77;;
69150;SDS011;56257;52.196;13.870;2022-10-18T12:49:56;5.00;;;2.45;;
69150;SDS011;56257;52.196;13.870;2022-10-18T12:52:28;4.82;;;2.28;;
69150;SDS011;56257;52.196;13.870;2022-10-18T13:16:41;5.43;;;2.40;;
69150;SDS011;56257;52.196;13.870;2022-10-18T13:19:17;6.13;;;2.60;;
69150;SDS011;56257;52.196;13.870;2022-10-18T13:24:22;5.55;;;2.10;;
69150;SDS011;56257;52.196;13.870;2022-10-18T13:32:37;5.25;;;2.30;;
69150;SDS011;56257;52.196;13.870;2022-10-18T13:41:02;5.03;;;2.47;;
69150;SDS011;56257;52.196;13.870;2022-10-18T13:56:46;4.50;;;1.98;;
69150;SDS011;56257;52.196;13.870;2022-10-18T14:02:19;4.68;;;2.15;;
69150;SDS011;56257;52.196;13.870;2022-10-18T14:11:10;4.07;;;2.10;;
69150;SDS011;56257;52.196;13.870;2022-10-18T14:13:44;5.15;;;1.83;;
69150;SDS011;56257;52.196;13.870;2022-10-18T14:21:46;5.10;;;1.97;;
69150;SDS011;56257;52.196;13.870;2022-10-18T14:24:18;3.85;;;1.80;;
69150;SDS011;56257;52.196;13.870;2022-10-18T14:26:46;4.43;;;1.83;;
69150;SDS011;56257;52.196;13.870;2022-10-18T14:29:17;4.80;;;1.80;;
69150;SDS011;56257;52.196;13.870;2022-10-18T14:31:52;4.38;;;1.75;;
69150;SDS011;56257;52.196;13.870;2022-10-18T14:34:19;5.27;;;2.23;;
69150;SDS011;56257;52.196;13.870;2022-10-18T14:36:47;4.45;;;1.73;;
69150;SDS011;56257;52.196;13.870;2022-10-18T14:39:19;4.00;;;2.00;;
69150;SDS011;56257;52.196;13.870;2022-10-18T14:41:50;4.68;;;2.10;;
69150;SDS011;56257;52.196;13.870;2022-10-18T14:44:24;4.07;;;1.73;;
69150;SDS011;56257;52.196;13.870;2022-10-18T14:46:59;3.90;;;2.00;;
69150;SDS011;56257;52.196;13.870;2022-10-18T14:49:44;4.53;;;1.80;;
69150;SDS011;56257;52.196;13.870;2022-10-18T14:52:12;3.67;;;1.88;;
69150;SDS011;56257;52.196;13.870;2022-10-18T14:54:52;4.18;;;1.80;;
69150;SDS011;56257;52.196;13.870;2022-10-18T14:57:27;4.25;;;1.83;;
69150;SDS011;56257;52.196;13.870;2022-10-18T15:00:00;4.20;;;1.90;;
69150;SDS011;56257;52.196;13.870;2022-10-18T15:02:31;4.78;;;1.80;;
69150;SDS011;56257;52.196;13.870;2022-10-18T15:05:04;6.13;;;2.50;;
69150;SDS011;56257;52.196;13.870;2022-10-18T15:07:34;4.63;;;1.90;;
69150;SDS011;56257;52.196;13.870;2022-10-18T15:10:03;3.88;;;1.88;;
69150;SDS011;56257;52.196;13.870;2022-10-18T15:12:31;4.40;;;1.80;;
69150;SDS011;56257;52.196;13.870;2022-10-18T15:15:06;4.75;;;1.60;;
69150;SDS011;56257;52.196;13.870;2022-10-18T15:17:33;4.35;;;1.80;;
69150;SDS011;56257;52.196;13.870;2022-10-18T15:20:17;4.35;;;1.70;;
69150;SDS011;56257;52.196;13.870;2022-10-18T15:22:46;4.00;;;1.90;;
69150;SDS011;56257;52.196;13.870;2022-10-18T15:25:19;4.20;;;1.70;;
69150;SDS011;56257;52.196;13.870;2022-10-18T15:27:57;4.10;;;1.77;;
69150;SDS011;56257;52.196;13.870;2022-10-18T15:30:28;5.05;;;2.00;;
69150;SDS011;56257;52.196;13.870;2022-10-18T15:33:02;4.85;;;2.05;;
69150;SDS011;56257;52.196;13.870;2022-10-18T15:35:35;3.88;;;1.88;;
69150;SDS011;56257;52.196;13.870;2022-10-18T15:38:13;4.17;;;2.10;;
69150;SDS011;56257;52.196;13.870;2022-10-18T15:40:46;5.30;;;2.53;;
69150;SDS011;56257;52.196;13.870;2022-10-18T15:45:50;7.45;;;3.15;;
69150;SDS011;56257;52.196;13.870;2022-10-18T15:48:39;6.18;;;3.47;;
69150;SDS011;56257;52.196;13.870;2022-10-18T15:51:08;7.00;;;3.50;;
69150;SDS011;56257;52.196;13.870;2022-10-18T15:53:49;5.72;;;3.67;;
69150;SDS011;56257;52.196;13.870;2022-10-18T15:56:27;7.50;;;3.63;;
69150;SDS011;56257;52.196;13.870;2022-10-18T15:58:59;7.47;;;3.72;;
69150;SDS011;56257;52.196;13.870;2022-10-18T16:01:34;6.82;;;4.10;;
69150;SDS011;56257;52.196;13.870;2022-10-18T16:04:07;7.23;;;3.80;;
69150;SDS011;56257;52.196;13.870;2022-10-18T16:06:37;5.85;;;3.20;;
69150;SDS011;56257;52.196;13.870;2022-10-18T16:09:04;7.28;;;3.85;;
69150;SDS011;56257;52.196;13.870;2022-10-18T16:11:31;6.93;;;3.42;;
69150;SDS011;56257;52.196;13.870;2022-10-18T16:13:57;8.73;;;3.70;;
69150;SDS011;56257;52.196;13.870;2022-10-18T16:16:26;7.27;;;3.70;;
69150;SDS011;56257;52.196;13.870;2022-10-18T16:18:53;6.80;;;3.28;;
69150;SDS011;56257;52.196;13.870;2022-10-18T16:23:47;5.97;;;3.13;;
69150;SDS011;56257;52.196;13.870;2022-10-18T16:26:14;6.38;;;3.58;;
69150;SDS011;56257;52.196;13.870;2022-10-18T16:28:41;5.77;;;3.17;;
69150;SDS011;56257;52.196;13.870;2022-10-18T16:31:09;6.15;;;3.13;;
69150;SDS011;56257;52.196;13.870;2022-10-18T16:33:45;6.55;;;3.33;;
69150;SDS011;56257;52.196;13.870;2022-10-18T16:36:18;7.28;;;3.15;;
69150;SDS011;56257;52.196;13.870;2022-10-18T16:38:46;6.05;;;3.42;;
69150;SDS011;56257;52.196;13.870;2022-10-18T16:41:14;6.53;;;3.10;;
69150;SDS011;56257;52.196;13.870;2022-10-18T16:43:41;5.97;;;3.20;;
69150;SDS011;56257;52.196;13.870;2022-10-18T16:46:09;7.38;;;3.13;;
69150;SDS011;56257;52.196;13.870;2022-10-18T16:48:42;6.25;;;2.60;;
69150;SDS011;56257;52.196;13.870;2022-10-18T16:51:09;5.63;;;3.10;;
69150;SDS011;56257;52.196;13.870;2022-10-18T16:53:36;7.13;;;3.10;;
69150;SDS011;56257;52.196;13.870;2022-10-18T16:56:03;7.13;;;3.38;;
69150;SDS011;56257;52.196;13.870;2022-10-18T16:58:31;4.60;;;2.58;;
69150;SDS011;56257;52.196;13.870;2022-10-18T17:00:58;5.63;;;2.70;;
69150;SDS011;56257;52.196;13.870;2022-10-18T17:03:29;5.80;;;2.70;;
69150;SDS011;56257;52.196;13.870;2022-10-18T17:05:55;6.03;;;2.97;;
69150;SDS011;56257;52.196;13.870;2022-10-18T17:08:26;5.47;;;3.00;;
69150;SDS011;56257;52.196;13.870;2022-10-18T17:10:54;4.97;;;2.75;;
69150;SDS011;56257;52.196;13.870;2022-10-18T17:13:22;5.47;;;2.63;;
69150;SDS011;56257;52.196;13.870;2022-10-18T17:15:49;5.53;;;3.03;;